createdAt,value
2018-12-10T00:00:43.634Z,0.00
2018-12-10T00:01:43.587Z,0.00
2018-12-10T00:02:43.534Z,0.00
2018-12-10T00:03:43.529Z,0.00
2018-12-10T00:04:43.502Z,0.00
2018-12-10T00:05:43.552Z,0.00
2018-12-10T00:06:43.480Z,0.00
2018-12-10T00:07:43.558Z,0.00
2018-12-10T00:08:43.470Z,0.00
2018-12-10T00:09:43.465Z,0.00
2018-12-10T00:10:43.429Z,0.00
2018-12-10T00:11:43.485Z,0.00
2018-12-10T00:12:43.437Z,0.00
2018-12-10T00:13:43.451Z,0.00
2018-12-10T00:14:43.462Z,0.00
2018-12-10T00:15:43.383Z,0.00
2018-12-10T00:16:43.372Z,0.00
2018-12-10T00:17:43.363Z,0.00
2018-12-10T00:18:43.370Z,0.00
2018-12-10T00:19:43.324Z,0.00
2018-12-10T00:20:43.321Z,0.00
2018-12-10T00:21:43.281Z,0.00
2018-12-10T00:22:43.308Z,0.00
2018-12-10T00:23:43.310Z,0.00
2018-12-10T00:24:43.295Z,0.00
2018-12-10T00:25:43.300Z,0.00
2018-12-10T00:26:43.278Z,0.00
2018-12-10T00:27:43.236Z,0.00
2018-12-10T00:28:43.286Z,0.00
2018-12-10T00:29:43.208Z,0.00
2018-12-10T00:30:43.208Z,0.00
2018-12-10T00:31:43.286Z,0.00
2018-12-10T00:32:43.264Z,0.00
2018-12-10T00:33:43.172Z,0.00
2018-12-10T00:34:43.169Z,0.00
2018-12-10T00:35:43.149Z,0.00
2018-12-10T00:36:43.174Z,0.00
2018-12-10T00:37:43.139Z,0.00
2018-12-10T00:38:43.130Z,0.00
2018-12-10T00:39:43.127Z,0.00
2018-12-10T00:40:43.190Z,0.00
2018-12-10T00:41:43.085Z,0.00
2018-12-10T00:42:43.067Z,0.00
2018-12-10T00:43:43.055Z,0.00
2018-12-10T00:44:43.050Z,0.00
2018-12-10T00:45:43.076Z,0.00
2018-12-10T00:46:43.046Z,0.00
2018-12-10T00:47:43.057Z,0.00
2018-12-10T00:48:43.030Z,0.00
2018-12-10T00:49:42.993Z,0.00
2018-12-10T00:50:42.981Z,0.00
2018-12-10T00:51:42.982Z,0.00
2018-12-10T00:52:42.964Z,0.00
2018-12-10T00:53:42.968Z,0.00
2018-12-10T00:54:42.957Z,0.00
2018-12-10T00:55:42.939Z,0.00
2018-12-10T00:56:42.929Z,0.00
2018-12-10T00:57:42.940Z,0.00
2018-12-10T00:58:42.921Z,0.00
2018-12-10T00:59:42.879Z,0.00
2018-12-10T01:00:42.901Z,0.00
2018-12-10T01:01:42.880Z,0.00
2018-12-10T01:02:42.909Z,0.00
2018-12-10T01:03:42.836Z,0.00
2018-12-10T01:04:42.842Z,0.00
2018-12-10T01:05:42.839Z,0.00
2018-12-10T01:06:42.858Z,0.00
2018-12-10T01:07:42.801Z,0.00
2018-12-10T01:08:42.841Z,0.00
2018-12-10T01:09:42.798Z,0.00
2018-12-10T01:10:51.815Z,0.00
2018-12-10T01:11:42.784Z,0.00
2018-12-10T01:12:51.840Z,0.00
2018-12-10T01:13:42.748Z,0.00
2018-12-10T01:14:42.742Z,0.00
2018-12-10T01:15:42.751Z,0.00
2018-12-10T01:16:42.685Z,0.00
2018-12-10T01:17:42.690Z,0.00
2018-12-10T01:18:42.675Z,0.00
2018-12-10T01:19:42.668Z,0.00
2018-12-10T01:20:42.683Z,0.00
2018-12-10T01:23:00.062Z,0.00
2018-12-10T01:24:00.029Z,0.00
2018-12-10T01:25:00.013Z,0.00
2018-12-10T01:26:00.019Z,0.00
2018-12-10T01:27:00.045Z,0.00
2018-12-10T01:28:00.018Z,0.00
2018-12-10T01:28:59.996Z,0.00
2018-12-10T01:30:00.022Z,0.00
2018-12-10T01:30:59.994Z,0.00
2018-12-10T01:31:59.945Z,0.00
2018-12-10T01:32:59.957Z,0.00
2018-12-10T01:33:59.930Z,0.00
2018-12-10T01:34:59.930Z,0.00
2018-12-10T01:36:00.075Z,0.00
2018-12-10T01:36:59.901Z,0.00
2018-12-10T01:37:59.896Z,0.00
2018-12-10T01:38:59.890Z,0.00
2018-12-10T01:39:59.918Z,0.00
2018-12-10T01:40:59.917Z,0.00
2018-12-10T01:41:59.856Z,0.00
2018-12-10T01:42:59.856Z,0.00
2018-12-10T01:43:59.841Z,0.00
2018-12-10T01:44:59.831Z,0.00
2018-12-10T01:45:59.801Z,0.00
2018-12-10T01:46:59.780Z,0.00
2018-12-10T01:47:59.799Z,0.00
2018-12-10T01:48:59.770Z,0.00
2018-12-10T01:49:59.800Z,0.00
2018-12-10T01:50:59.779Z,0.00
2018-12-10T01:51:59.747Z,0.00
2018-12-10T01:52:59.740Z,0.00
2018-12-10T01:53:59.750Z,0.00
2018-12-10T01:54:59.705Z,0.00
2018-12-10T01:55:59.731Z,0.00
2018-12-10T01:56:59.678Z,0.00
2018-12-10T01:57:59.680Z,0.00
2018-12-10T01:58:59.667Z,0.00
2018-12-10T01:59:59.665Z,0.00
2018-12-10T02:00:59.663Z,0.00
2018-12-10T02:01:59.654Z,0.00
2018-12-10T02:02:59.662Z,0.00
2018-12-10T02:03:59.619Z,0.00
2018-12-10T02:04:59.592Z,0.00
2018-12-10T02:05:59.597Z,0.00
2018-12-10T02:06:59.604Z,0.00
2018-12-10T02:07:59.576Z,0.00
2018-12-10T02:08:59.562Z,0.00
2018-12-10T02:09:59.580Z,0.00
2018-12-10T02:10:59.535Z,0.00
2018-12-10T02:11:59.592Z,0.00
2018-12-10T02:12:59.551Z,0.00
2018-12-10T02:13:59.517Z,0.00
2018-12-10T02:14:59.494Z,0.00
2018-12-10T02:15:59.511Z,0.00
2018-12-10T02:16:59.510Z,0.00
2018-12-10T02:17:59.469Z,0.00
2018-12-10T02:18:59.470Z,0.00
2018-12-10T02:19:59.456Z,0.00
2018-12-10T02:20:59.443Z,0.00
2018-12-10T02:21:59.410Z,0.00
2018-12-10T02:22:59.402Z,0.00
2018-12-10T02:23:59.414Z,0.00
2018-12-10T02:24:59.396Z,0.00
2018-12-10T02:25:59.375Z,0.00
2018-12-10T02:26:59.394Z,0.00
2018-12-10T02:27:59.371Z,0.00
2018-12-10T02:28:59.381Z,0.00
2018-12-10T02:29:59.422Z,0.00
2018-12-10T02:30:59.335Z,0.00
2018-12-10T02:31:59.329Z,0.00
2018-12-10T02:32:59.333Z,0.00
2018-12-10T02:33:59.294Z,0.00
2018-12-10T02:34:59.330Z,0.00
2018-12-10T02:35:59.280Z,0.00
2018-12-10T02:36:59.260Z,0.00
2018-12-10T02:37:59.253Z,0.00
2018-12-10T02:38:59.264Z,0.00
2018-12-10T02:39:59.215Z,0.00
2018-12-10T02:40:59.222Z,0.00
2018-12-10T02:41:59.217Z,0.00
2018-12-10T02:42:59.192Z,0.00
2018-12-10T02:43:59.194Z,0.00
2018-12-10T02:44:59.196Z,0.00
2018-12-10T02:45:59.208Z,0.00
2018-12-10T02:46:59.156Z,0.00
2018-12-10T02:47:59.172Z,0.00
2018-12-10T02:48:59.145Z,0.00
2018-12-10T02:49:59.177Z,0.00
2018-12-10T02:50:59.112Z,0.00
2018-12-10T02:51:59.128Z,0.00
2018-12-10T02:52:59.093Z,0.00
2018-12-10T02:53:59.104Z,0.00
2018-12-10T02:54:59.084Z,0.00
2018-12-10T02:55:59.101Z,0.00
2018-12-10T02:56:59.059Z,0.00
2018-12-10T02:57:59.059Z,0.00
2018-12-10T02:58:59.032Z,0.00
2018-12-10T02:59:59.043Z,0.00
2018-12-10T03:00:59.019Z,0.00
2018-12-10T03:01:59.035Z,0.00
2018-12-10T03:02:59.016Z,0.00
2018-12-10T03:03:58.992Z,0.00
2018-12-10T03:04:58.971Z,0.00
2018-12-10T03:05:58.973Z,0.00
2018-12-10T03:06:58.980Z,0.00
2018-12-10T03:07:58.979Z,0.00
2018-12-10T03:08:58.920Z,0.00
2018-12-10T03:09:58.932Z,0.00
2018-12-10T03:10:59.059Z,0.00
2018-12-10T03:11:58.910Z,0.00
2018-12-10T03:12:58.878Z,0.00
2018-12-10T03:13:58.873Z,0.00
2018-12-10T03:14:58.893Z,0.00
2018-12-10T03:15:58.862Z,0.00
2018-12-10T03:16:58.860Z,0.00
2018-12-10T03:17:58.825Z,0.00
2018-12-10T03:18:58.910Z,0.00
2018-12-10T03:19:58.796Z,0.00
2018-12-10T03:20:58.816Z,0.00
2018-12-10T03:21:58.820Z,0.00
2018-12-10T03:22:58.831Z,0.00
2018-12-10T03:23:58.754Z,0.00
2018-12-10T03:24:58.751Z,0.00
2018-12-10T03:25:58.745Z,0.00
2018-12-10T03:26:58.772Z,0.00
2018-12-10T03:27:58.762Z,0.00
2018-12-10T03:28:58.780Z,0.00
2018-12-10T03:29:58.731Z,0.00
2018-12-10T03:30:58.705Z,0.00
2018-12-10T03:31:58.799Z,0.00
2018-12-10T03:32:58.694Z,0.00
2018-12-10T03:33:58.719Z,0.00
2018-12-10T03:34:58.653Z,0.00
2018-12-10T03:35:58.631Z,0.00
2018-12-10T03:36:58.627Z,0.00
2018-12-10T03:37:58.779Z,0.00
2018-12-10T03:38:58.589Z,0.00
2018-12-10T03:39:58.614Z,0.00
2018-12-10T03:40:58.585Z,0.00
2018-12-10T03:41:58.591Z,0.00
2018-12-10T03:42:58.573Z,0.00
2018-12-10T03:43:58.549Z,0.00
2018-12-10T03:44:58.550Z,0.00
2018-12-10T03:45:58.629Z,0.00
2018-12-10T03:46:58.567Z,0.00
2018-12-10T03:47:58.598Z,0.00
2018-12-10T03:48:59.414Z,0.00
2018-12-10T03:49:58.589Z,0.00
2018-12-10T03:51:02.459Z,0.00
2018-12-10T03:51:58.459Z,0.00
2018-12-10T03:52:58.462Z,0.00
2018-12-10T03:53:58.443Z,0.00
2018-12-10T03:54:58.474Z,0.00
2018-12-10T03:55:58.412Z,0.00
2018-12-10T03:56:58.474Z,0.00
2018-12-10T03:57:58.403Z,0.00
2018-12-10T03:58:58.938Z,0.00
2018-12-10T03:59:58.411Z,0.00
2018-12-10T04:00:58.440Z,0.00
2018-12-10T04:01:58.417Z,0.00
2018-12-10T04:02:58.340Z,0.00
2018-12-10T04:03:58.331Z,0.00
2018-12-10T04:04:58.942Z,0.00
2018-12-10T04:05:58.313Z,0.00
2018-12-10T04:06:58.318Z,0.00
2018-12-10T04:07:59.351Z,0.00
2018-12-10T04:08:58.268Z,0.00
2018-12-10T04:09:58.277Z,0.00
2018-12-10T04:10:58.285Z,0.00
2018-12-10T04:11:58.279Z,0.00
2018-12-10T04:12:58.293Z,0.00
2018-12-10T04:13:58.214Z,0.00
2018-12-10T04:14:58.229Z,0.00
2018-12-10T04:15:58.196Z,0.00
2018-12-10T04:16:58.218Z,0.00
2018-12-10T04:17:58.234Z,0.00
2018-12-10T04:18:58.199Z,0.00
2018-12-10T04:19:58.156Z,0.00
2018-12-10T04:20:58.155Z,0.00
2018-12-10T04:21:58.203Z,0.00
2018-12-10T04:22:58.146Z,0.00
2018-12-10T04:23:58.132Z,0.00
2018-12-10T04:24:58.107Z,0.00
2018-12-10T04:25:58.138Z,0.00
2018-12-10T04:26:58.086Z,0.00
2018-12-10T04:27:58.089Z,0.00
2018-12-10T04:28:58.103Z,0.00
2018-12-10T04:29:58.058Z,0.00
2018-12-10T04:30:58.073Z,0.00
2018-12-10T04:31:58.045Z,0.00
2018-12-10T04:32:58.070Z,0.00
2018-12-10T04:33:58.020Z,0.00
2018-12-10T04:34:57.996Z,0.00
2018-12-10T04:35:58.215Z,0.00
2018-12-10T04:36:58.106Z,0.00
2018-12-10T04:37:57.973Z,0.00
2018-12-10T04:38:57.973Z,0.00
2018-12-10T04:39:58.000Z,0.00
2018-12-10T04:40:57.942Z,0.00
2018-12-10T04:41:57.936Z,0.00
2018-12-10T04:42:57.929Z,0.00
2018-12-10T04:44:06.963Z,0.00
2018-12-10T04:44:57.890Z,0.00
2018-12-10T04:45:57.870Z,0.00
2018-12-10T04:46:57.890Z,0.00
2018-12-10T04:47:57.852Z,0.00
2018-12-10T04:48:57.837Z,0.00
2018-12-10T04:49:57.846Z,0.00
2018-12-10T04:51:07.988Z,0.00
2018-12-10T04:51:57.840Z,0.00
2018-12-10T04:53:07.015Z,0.00
2018-12-10T04:54:07.084Z,0.00
2018-12-10T04:54:57.780Z,0.00
2018-12-10T04:55:57.767Z,0.00
2018-12-10T04:56:57.744Z,0.00
2018-12-10T04:57:57.760Z,0.00
2018-12-10T04:58:57.745Z,0.00
2018-12-10T05:00:08.426Z,0.00
2018-12-10T05:00:57.703Z,0.00
2018-12-10T05:01:57.706Z,0.00
2018-12-10T05:02:57.739Z,0.00
2018-12-10T05:03:57.696Z,0.00
2018-12-10T05:04:57.710Z,0.00
2018-12-10T05:05:57.652Z,0.00
2018-12-10T05:06:57.644Z,0.00
2018-12-10T05:07:57.632Z,0.00
2018-12-10T05:08:57.658Z,0.00
2018-12-10T05:09:57.617Z,0.00
2018-12-10T05:10:57.612Z,0.00
2018-12-10T05:12:07.094Z,0.00
2018-12-10T05:13:06.659Z,0.00
2018-12-10T05:14:06.184Z,0.00
2018-12-10T05:14:57.571Z,0.00
2018-12-10T05:16:09.199Z,0.00
2018-12-10T05:17:06.783Z,0.00
2018-12-10T05:18:06.812Z,0.00
2018-12-10T05:19:06.309Z,0.00
2018-12-10T05:21:14.922Z,0.00
2018-12-10T05:22:14.907Z,0.00
2018-12-10T05:23:24.312Z,0.00
2018-12-10T05:24:14.955Z,0.00
2018-12-10T05:25:14.889Z,0.00
2018-12-10T05:26:14.850Z,0.00
2018-12-10T05:27:14.884Z,0.00
2018-12-10T05:28:14.850Z,0.00
2018-12-10T05:29:14.827Z,0.00
2018-12-10T05:30:14.871Z,0.00
2018-12-10T05:31:14.813Z,0.00
2018-12-10T05:32:14.820Z,0.00
2018-12-10T05:33:14.782Z,0.00
2018-12-10T05:34:14.790Z,0.00
2018-12-10T05:35:14.759Z,0.00
2018-12-10T05:36:14.798Z,0.00
2018-12-10T05:37:14.744Z,0.00
2018-12-10T05:38:14.727Z,0.00
2018-12-10T05:39:24.842Z,0.00
2018-12-10T05:40:23.877Z,0.00
2018-12-10T05:42:32.115Z,0.00
2018-12-10T05:43:41.514Z,0.00
2018-12-10T05:44:32.106Z,0.00
2018-12-10T05:45:32.080Z,0.00
2018-12-10T05:46:32.087Z,0.00
2018-12-10T05:47:32.078Z,0.00
2018-12-10T05:48:32.030Z,0.00
2018-12-10T05:49:32.031Z,0.00
2018-12-10T05:50:32.052Z,0.00
2018-12-10T05:51:32.093Z,0.00
2018-12-10T05:52:41.042Z,0.00
2018-12-10T05:53:31.983Z,0.00
2018-12-10T05:54:31.981Z,0.00
2018-12-10T05:55:32.002Z,0.00
2018-12-10T05:56:32.024Z,0.00
2018-12-10T05:57:31.972Z,0.00
2018-12-10T05:58:31.974Z,0.00
2018-12-10T05:59:31.960Z,0.00
2018-12-10T06:00:31.924Z,0.00
2018-12-10T06:01:31.900Z,0.00
2018-12-10T06:02:31.920Z,0.00
2018-12-10T06:03:31.920Z,0.00
2018-12-10T06:04:31.895Z,0.00
2018-12-10T06:05:31.867Z,0.00
2018-12-10T06:06:31.862Z,0.00
2018-12-10T06:07:31.851Z,0.00
2018-12-10T06:08:31.827Z,0.00
2018-12-10T06:09:31.842Z,0.00
2018-12-10T06:10:31.841Z,0.00
2018-12-10T06:11:31.806Z,0.00
2018-12-10T06:12:31.796Z,0.00
2018-12-10T06:13:31.797Z,0.00
2018-12-10T06:14:31.779Z,0.00
2018-12-10T06:15:31.814Z,0.00
2018-12-10T06:16:31.812Z,0.00
2018-12-10T06:17:31.744Z,0.00
2018-12-10T06:18:31.905Z,0.00
2018-12-10T06:19:31.742Z,0.00
2018-12-10T06:20:31.731Z,0.00
2018-12-10T06:21:31.709Z,0.00
2018-12-10T06:22:31.691Z,0.00
2018-12-10T06:23:31.732Z,0.00
2018-12-10T06:24:32.483Z,0.00
2018-12-10T06:25:31.976Z,0.00
2018-12-10T06:26:31.724Z,0.00
2018-12-10T06:27:31.719Z,0.00
2018-12-10T06:28:31.683Z,0.00
2018-12-10T06:29:31.915Z,4.00
2018-12-10T06:30:31.757Z,4.00
2018-12-10T06:31:31.736Z,4.00
2018-12-10T06:32:31.965Z,0.00
2018-12-10T06:33:31.725Z,0.00
2018-12-10T06:34:31.741Z,4.00
2018-12-10T06:35:31.760Z,4.00
2018-12-10T06:36:31.589Z,4.00
2018-12-10T06:37:37.510Z,4.00
2018-12-10T06:38:32.618Z,8.00
2018-12-10T06:39:31.557Z,8.00
2018-12-10T06:40:31.552Z,8.00
2018-12-10T06:41:31.597Z,8.00
2018-12-10T06:42:31.568Z,8.00
2018-12-10T06:43:31.495Z,8.00
2018-12-10T06:44:31.501Z,12.00
2018-12-10T06:45:32.487Z,12.00
2018-12-10T06:46:31.454Z,16.00
2018-12-10T06:47:31.456Z,16.00
2018-12-10T06:48:31.487Z,16.00
2018-12-10T06:49:31.489Z,20.00
2018-12-10T06:50:31.451Z,28.00
2018-12-10T06:51:31.435Z,28.00
2018-12-10T06:52:31.492Z,36.00
2018-12-10T06:53:31.396Z,40.00
2018-12-10T06:54:31.377Z,48.00
2018-12-10T06:55:31.374Z,44.00
2018-12-10T06:56:31.501Z,56.00
2018-12-10T06:57:31.569Z,56.00
2018-12-10T06:58:31.391Z,68.00
2018-12-10T06:59:31.396Z,76.00
2018-12-10T07:00:31.436Z,84.00
2018-12-10T07:01:31.313Z,96.00
2018-12-10T07:02:31.309Z,100.00
2018-12-10T07:03:31.306Z,120.00
2018-12-10T07:04:31.312Z,132.00
2018-12-10T07:05:31.255Z,136.00
2018-12-10T07:06:31.280Z,148.00
2018-12-10T07:07:31.237Z,160.00
2018-12-10T07:08:31.220Z,172.00
2018-12-10T07:09:31.226Z,184.00
2018-12-10T07:10:31.234Z,200.00
2018-12-10T07:11:31.192Z,212.00
2018-12-10T07:12:31.263Z,224.00
2018-12-10T07:13:31.210Z,224.00
2018-12-10T07:14:31.189Z,228.00
2018-12-10T07:15:31.173Z,232.00
2018-12-10T07:16:31.174Z,260.00
2018-12-10T07:17:31.134Z,272.00
2018-12-10T07:18:31.142Z,280.00
2018-12-10T07:19:31.114Z,300.00
2018-12-10T07:20:31.160Z,312.00
2018-12-10T07:21:31.113Z,292.00
2018-12-10T07:22:31.097Z,288.00
2018-12-10T07:23:31.069Z,324.00
2018-12-10T07:24:31.076Z,380.00
2018-12-10T07:25:31.059Z,396.00
2018-12-10T07:26:31.040Z,400.00
2018-12-10T07:27:31.079Z,432.00
2018-12-10T07:28:31.011Z,452.00
2018-12-10T07:29:31.022Z,460.00
2018-12-10T07:30:31.014Z,488.00
2018-12-10T07:31:30.988Z,500.00
2018-12-10T07:32:31.023Z,492.00
2018-12-10T07:33:30.972Z,464.00
2018-12-10T07:34:30.969Z,504.00
2018-12-10T07:35:30.967Z,548.00
2018-12-10T07:36:31.061Z,580.00
2018-12-10T07:37:30.981Z,572.00
2018-12-10T07:38:30.938Z,564.00
2018-12-10T07:39:30.943Z,592.00
2018-12-10T07:40:30.878Z,604.00
2018-12-10T07:41:30.933Z,632.00
2018-12-10T07:42:30.902Z,608.00
2018-12-10T07:43:30.879Z,512.00
2018-12-10T07:44:30.923Z,528.00
2018-12-10T07:45:30.879Z,500.00
2018-12-10T07:46:30.933Z,504.00
2018-12-10T07:47:30.839Z,612.00
2018-12-10T07:48:30.911Z,592.00
2018-12-10T07:49:30.798Z,536.00
2018-12-10T07:50:31.332Z,624.00
2018-12-10T07:51:30.804Z,712.00
2018-12-10T07:52:30.865Z,748.00
2018-12-10T07:53:30.776Z,920.00
2018-12-10T07:54:30.745Z,920.00
2018-12-10T07:55:30.912Z,1000.00
2018-12-10T07:56:30.757Z,1128.00
2018-12-10T07:57:30.705Z,1292.00
2018-12-10T07:58:30.733Z,1196.00
2018-12-10T07:59:30.751Z,996.00
2018-12-10T08:00:30.702Z,976.00
2018-12-10T08:01:30.763Z,916.00
2018-12-10T08:02:30.813Z,1068.00
2018-12-10T08:03:30.652Z,1352.00
2018-12-10T08:04:30.649Z,1504.00
2018-12-10T08:05:30.659Z,1624.00
2018-12-10T08:06:30.607Z,1600.00
2018-12-10T08:07:30.639Z,1540.00
2018-12-10T08:08:30.707Z,1504.00
2018-12-10T08:09:30.604Z,1504.00
2018-12-10T08:10:30.592Z,1644.00
2018-12-10T08:11:30.621Z,1748.00
2018-12-10T08:12:30.586Z,1476.00
2018-12-10T08:13:30.572Z,1140.00
2018-12-10T08:14:30.587Z,992.00
2018-12-10T08:15:30.531Z,948.00
2018-12-10T08:16:30.548Z,1216.00
2018-12-10T08:17:30.597Z,1452.00
2018-12-10T08:18:30.560Z,1516.00
2018-12-10T08:19:30.536Z,1584.00
2018-12-10T08:20:30.533Z,1680.00
2018-12-10T08:21:30.452Z,1572.00
2018-12-10T08:22:30.465Z,1584.00
2018-12-10T08:23:30.545Z,1604.00
2018-12-10T08:24:30.466Z,1612.00
2018-12-10T08:25:30.419Z,1540.00
2018-12-10T08:26:30.441Z,1376.00
2018-12-10T08:27:30.474Z,1316.00
2018-12-10T08:28:30.399Z,1308.00
2018-12-10T08:29:30.420Z,1320.00
2018-12-10T08:30:30.411Z,1324.00
2018-12-10T08:31:30.470Z,1376.00
2018-12-10T08:32:30.342Z,1408.00
2018-12-10T08:33:30.390Z,1420.00
2018-12-10T08:34:30.354Z,1496.00
2018-12-10T08:35:30.430Z,1432.00
2018-12-10T08:36:30.341Z,1468.00
2018-12-10T08:37:30.291Z,1408.00
2018-12-10T08:38:30.306Z,1412.00
2018-12-10T08:39:30.269Z,1396.00
2018-12-10T08:40:30.264Z,1348.00
2018-12-10T08:41:30.381Z,1404.00
2018-12-10T08:42:30.282Z,1420.00
2018-12-10T08:43:30.282Z,1420.00
2018-12-10T08:44:30.278Z,1544.00
2018-12-10T08:45:30.209Z,1568.00
2018-12-10T08:46:30.231Z,1576.00
2018-12-10T08:47:30.249Z,1816.00
2018-12-10T08:48:30.219Z,1924.00
2018-12-10T08:49:30.207Z,1928.00
2018-12-10T08:50:30.161Z,2108.00
2018-12-10T08:51:30.153Z,1924.00
2018-12-10T08:52:30.147Z,1912.00
2018-12-10T08:53:30.148Z,2396.00
2018-12-10T08:54:30.195Z,1980.00
2018-12-10T08:55:30.209Z,1824.00
2018-12-10T08:56:30.087Z,1868.00
2018-12-10T08:57:30.136Z,1860.00
2018-12-10T08:58:30.074Z,1840.00
2018-12-10T08:59:30.113Z,2352.00
2018-12-10T09:00:30.080Z,2356.00
2018-12-10T09:01:30.078Z,2048.00
2018-12-10T09:02:30.021Z,2548.00
2018-12-10T09:03:30.061Z,2556.00
2018-12-10T09:04:30.125Z,2532.00
2018-12-10T09:05:30.978Z,3020.00
2018-12-10T09:06:29.995Z,3636.00
2018-12-10T09:07:29.975Z,3148.00
2018-12-10T09:08:30.053Z,2592.00
2018-12-10T09:09:29.980Z,2200.00
2018-12-10T09:10:30.016Z,2204.00
2018-12-10T09:11:30.063Z,2708.00
2018-12-10T09:12:29.988Z,1860.00
2018-12-10T09:13:29.934Z,1992.00
2018-12-10T09:14:29.921Z,1968.00
2018-12-10T09:15:29.954Z,2240.00
2018-12-10T09:16:29.931Z,2632.00
2018-12-10T09:17:30.009Z,2252.00
2018-12-10T09:18:29.860Z,3072.00
2018-12-10T09:19:29.883Z,3116.00
2018-12-10T09:20:38.606Z,2800.00
2018-12-10T09:21:39.597Z,3580.00
2018-12-10T09:22:29.889Z,3572.00
2018-12-10T09:23:29.827Z,3716.00
2018-12-10T09:24:29.804Z,3360.00
2018-12-10T09:25:29.798Z,3408.00
2018-12-10T09:26:29.780Z,3152.00
2018-12-10T09:27:29.817Z,3024.00
2018-12-10T09:28:29.787Z,2584.00
2018-12-10T09:29:29.782Z,2832.00
2018-12-10T09:30:29.787Z,2696.00
2018-12-10T09:31:29.738Z,2288.00
2018-12-10T09:32:29.777Z,2932.00
2018-12-10T09:33:29.783Z,3016.00
2018-12-10T09:34:29.714Z,3488.00
2018-12-10T09:35:29.719Z,2732.00
2018-12-10T09:36:29.709Z,3604.00
2018-12-10T09:37:29.723Z,2536.00
2018-12-10T09:38:29.691Z,3172.00
2018-12-10T09:39:30.288Z,2940.00
2018-12-10T09:40:29.650Z,3472.00
2018-12-10T09:41:29.634Z,3640.00
2018-12-10T09:42:29.619Z,3704.00
2018-12-10T09:43:29.645Z,3736.00
2018-12-10T09:44:29.685Z,3976.00
2018-12-10T09:45:29.623Z,4876.00
2018-12-10T09:46:29.598Z,2580.00
2018-12-10T09:47:29.602Z,3212.00
2018-12-10T09:48:29.592Z,2464.00
2018-12-10T09:49:29.554Z,2948.00
2018-12-10T09:50:29.622Z,2988.00
2018-12-10T09:51:29.526Z,3940.00
2018-12-10T09:52:29.547Z,2608.00
2018-12-10T09:53:29.504Z,2612.00
2018-12-10T09:54:29.525Z,3588.00
2018-12-10T09:55:29.570Z,2808.00
2018-12-10T09:56:29.483Z,2676.00
2018-12-10T09:57:29.472Z,2660.00
2018-12-10T09:58:29.464Z,3268.00
2018-12-10T09:59:29.451Z,2208.00
2018-12-10T10:00:29.427Z,2340.00
2018-12-10T10:01:29.516Z,2860.00
2018-12-10T10:02:29.454Z,3884.00
2018-12-10T10:03:29.437Z,4416.00
2018-12-10T10:04:29.431Z,3628.00
2018-12-10T10:05:29.406Z,4016.00
2018-12-10T10:06:29.344Z,3040.00
2018-12-10T10:07:29.363Z,3644.00
2018-12-10T10:08:29.342Z,6128.00
2018-12-10T10:09:29.351Z,6192.00
2018-12-10T10:10:29.343Z,5660.00
2018-12-10T10:11:29.339Z,3740.00
2018-12-10T10:12:29.354Z,2672.00
2018-12-10T10:13:29.426Z,2528.00
2018-12-10T10:14:29.295Z,2992.00
2018-12-10T10:15:29.302Z,3924.00
2018-12-10T10:16:29.293Z,4844.00
2018-12-10T10:17:29.238Z,4656.00
2018-12-10T10:18:29.226Z,4368.00
2018-12-10T10:19:29.234Z,4996.00
2018-12-10T10:20:29.217Z,4296.00
2018-12-10T10:21:29.193Z,3500.00
2018-12-10T10:22:29.190Z,3500.00
2018-12-10T10:23:29.179Z,3240.00
2018-12-10T10:24:29.183Z,3480.00
2018-12-10T10:25:29.161Z,3836.00
2018-12-10T10:26:29.149Z,3316.00
2018-12-10T10:27:29.124Z,2456.00
2018-12-10T10:28:29.145Z,2260.00
2018-12-10T10:29:29.125Z,2816.00
2018-12-10T10:30:29.118Z,2632.00
2018-12-10T10:31:29.086Z,2736.00
2018-12-10T10:32:29.084Z,3336.00
2018-12-10T10:33:32.494Z,4372.00
2018-12-10T10:34:29.059Z,4172.00
2018-12-10T10:35:29.106Z,5568.00
2018-12-10T10:36:29.080Z,4644.00
2018-12-10T10:37:29.029Z,3424.00
2018-12-10T10:38:29.021Z,3792.00
2018-12-10T10:39:29.041Z,4264.00
2018-12-10T10:40:29.034Z,4812.00
2018-12-10T10:41:31.332Z,5228.00
2018-12-10T10:42:28.974Z,3960.00
2018-12-10T10:43:28.962Z,4044.00
2018-12-10T10:44:28.984Z,3964.00
2018-12-10T10:45:34.707Z,4200.00
2018-12-10T10:46:29.997Z,3408.00
2018-12-10T10:47:28.921Z,4236.00
2018-12-10T10:48:28.912Z,4572.00
2018-12-10T10:49:28.906Z,3784.00
2018-12-10T10:50:28.895Z,3676.00
2018-12-10T10:51:28.882Z,3968.00
2018-12-10T10:52:33.160Z,4212.00
2018-12-10T10:53:28.860Z,3816.00
2018-12-10T10:54:29.078Z,3764.00
2018-12-10T10:55:28.911Z,3608.00
2018-12-10T10:56:28.961Z,3092.00
2018-12-10T10:57:28.845Z,4416.00
2018-12-10T10:58:28.831Z,4548.00
2018-12-10T10:59:28.811Z,4156.00
2018-12-10T11:00:28.821Z,4236.00
2018-12-10T11:01:28.790Z,3748.00
2018-12-10T11:02:28.755Z,3772.00
2018-12-10T11:03:28.830Z,3996.00
2018-12-10T11:04:37.085Z,3652.00
2018-12-10T11:05:29.765Z,3832.00
2018-12-10T11:06:28.743Z,3032.00
2018-12-10T11:07:29.646Z,4024.00
2018-12-10T11:08:28.733Z,4256.00
2018-12-10T11:09:28.735Z,3976.00
2018-12-10T11:10:28.701Z,3636.00
2018-12-10T11:11:28.675Z,4128.00
2018-12-10T11:12:28.679Z,3956.00
2018-12-10T11:13:28.661Z,3852.00
2018-12-10T11:14:28.630Z,3292.00
2018-12-10T11:15:28.719Z,3268.00
2018-12-10T11:16:28.635Z,2308.00
2018-12-10T11:17:28.630Z,2872.00
2018-12-10T11:18:28.662Z,4264.00
2018-12-10T11:19:28.600Z,3976.00
2018-12-10T11:20:28.624Z,3308.00
2018-12-10T11:21:28.581Z,3088.00
2018-12-10T11:22:28.554Z,2940.00
2018-12-10T11:23:28.560Z,3112.00
2018-12-10T11:24:28.557Z,3896.00
2018-12-10T11:25:28.652Z,3724.00
2018-12-10T11:26:28.590Z,3540.00
2018-12-10T11:27:28.507Z,3480.00
2018-12-10T11:28:28.482Z,2892.00
2018-12-10T11:29:28.491Z,3168.00
2018-12-10T11:30:28.550Z,3348.00
2018-12-10T11:31:28.493Z,3228.00
2018-12-10T11:32:28.461Z,3024.00
2018-12-10T11:33:28.458Z,2908.00
2018-12-10T11:34:28.430Z,3460.00
2018-12-10T11:35:28.439Z,2572.00
2018-12-10T11:36:28.408Z,2840.00
2018-12-10T11:37:28.426Z,1760.00
2018-12-10T11:38:28.462Z,2736.00
2018-12-10T11:39:28.379Z,3348.00
2018-12-10T11:40:28.404Z,3580.00
2018-12-10T11:41:28.394Z,2340.00
2018-12-10T11:42:28.360Z,2256.00
2018-12-10T11:43:28.342Z,2552.00
2018-12-10T11:44:28.331Z,2844.00
2018-12-10T11:45:28.319Z,2764.00
2018-12-10T11:46:28.372Z,2964.00
2018-12-10T11:47:28.495Z,3224.00
2018-12-10T11:48:28.308Z,3440.00
2018-12-10T11:49:28.290Z,2776.00
2018-12-10T11:50:28.261Z,2604.00
2018-12-10T11:51:28.293Z,2940.00
2018-12-10T11:52:28.239Z,2328.00
2018-12-10T11:53:28.237Z,1620.00
2018-12-10T11:54:28.260Z,1936.00
2018-12-10T11:55:28.233Z,1824.00
2018-12-10T11:56:28.247Z,1752.00
2018-12-10T11:57:28.227Z,1620.00
2018-12-10T11:58:28.191Z,1304.00
2018-12-10T11:59:28.222Z,1500.00
2018-12-10T12:00:29.608Z,1656.00
2018-12-10T12:01:28.181Z,1756.00
2018-12-10T12:02:29.842Z,1436.00
2018-12-10T12:03:28.210Z,1528.00
2018-12-10T12:04:28.140Z,1576.00
2018-12-10T12:05:28.169Z,1480.00
2018-12-10T12:06:28.114Z,1340.00
2018-12-10T12:07:28.067Z,1360.00
2018-12-10T12:08:28.084Z,1384.00
2018-12-10T12:09:28.067Z,1696.00
2018-12-10T12:10:28.076Z,1748.00
2018-12-10T12:11:28.063Z,1760.00
2018-12-10T12:12:28.064Z,1660.00
2018-12-10T12:13:28.043Z,1972.00
2018-12-10T12:14:28.010Z,2116.00
2018-12-10T12:15:28.005Z,1860.00
2018-12-10T12:16:27.992Z,1724.00
2018-12-10T12:17:27.974Z,1788.00
2018-12-10T12:18:28.019Z,2308.00
2018-12-10T12:19:27.961Z,2240.00
2018-12-10T12:20:28.853Z,1940.00
2018-12-10T12:21:28.537Z,1936.00
2018-12-10T12:22:28.372Z,2324.00
2018-12-10T12:23:29.550Z,1728.00
2018-12-10T12:24:27.960Z,1512.00
2018-12-10T12:25:27.897Z,1880.00
2018-12-10T12:26:27.906Z,1932.00
2018-12-10T12:27:27.965Z,1372.00
2018-12-10T12:28:27.875Z,1308.00
2018-12-10T12:29:27.885Z,2012.00
2018-12-10T12:30:27.852Z,2484.00
2018-12-10T12:31:27.840Z,2380.00
2018-12-10T12:32:27.840Z,2916.00
2018-12-10T12:33:27.834Z,3172.00
2018-12-10T12:34:27.805Z,2888.00
2018-12-10T12:35:27.813Z,2704.00
2018-12-10T12:36:27.759Z,2932.00
2018-12-10T12:37:27.761Z,2716.00
2018-12-10T12:38:27.751Z,1964.00
2018-12-10T12:39:27.743Z,2072.00
2018-12-10T12:40:27.740Z,2804.00
2018-12-10T12:41:27.767Z,3452.00
2018-12-10T12:42:27.776Z,4148.00
2018-12-10T12:43:27.756Z,3156.00
2018-12-10T12:44:27.805Z,3044.00
2018-12-10T12:45:27.684Z,3784.00
2018-12-10T12:46:27.671Z,3040.00
2018-12-10T12:47:27.655Z,2296.00
2018-12-10T12:48:27.666Z,2292.00
2018-12-10T12:49:27.876Z,2280.00